Time;durP1;ratioP1;P1;durP2;ratioP2;P2;SDS_P1;SDS_P2;PMS_P1;PMS_P2;Temp;Humidity;BMP_temperature;BMP_pressure;BME280_temperature;BME280_humidity;BME280_pressure;Samples;Min_cycle;Max_cycle;Signal;HPM_P1;HPM_P2
2022/12/22 03:27:12;;;;;;;97.90;29.75;;;8.10;99.90;;;;;;5129060;27;19916;-81
2022/12/22 03:29:37;;;;;;;109.53;29.95;;;8.10;99.90;;;;;;5114478;28;20039;-80
2022/12/22 03:32:03;;;;;;;107.07;31.00;;;8.10;99.90;;;;;;5114928;28;20080;-81
2022/12/22 03:34:29;;;;;;;102.57;30.27;;;8.10;99.90;;;;;;5116778;27;20051;-81
2022/12/22 03:36:54;;;;;;;98.00;29.80;;;8.10;99.90;;;;;;5135115;27;20046;-82
2022/12/22 03:39:20;;;;;;;120.38;32.67;;;8.10;99.90;;;;;;5130169;27;20045;-83
2022/12/22 03:47:13;;;;;;;90.30;27.63;;;8.10;99.90;;;;;;5114131;28;19920;-81
2022/12/22 03:49:39;;;;;;;96.70;29.08;;;8.10;99.90;;;;;;5113950;28;20039;-80
2022/12/22 03:52:04;;;;;;;85.57;28.70;;;8.10;99.90;;;;;;5114335;28;20038;-82
2022/12/22 03:54:30;;;;;;;93.63;28.45;;;8.10;99.90;;;;;;5114018;28;20039;-80
2022/12/22 03:56:55;;;;;;;116.93;31.02;;;8.10;99.90;;;;;;5113244;28;20046;-81
2022/12/22 03:59:21;;;;;;;102.78;29.70;;;8.10;99.90;;;;;;5113665;28;20119;-81
2022/12/22 04:01:49;;;;;;;111.25;28.70;;;8.10;99.90;;;;;;5113782;28;20103;-83
2022/12/22 04:04:16;;;;;;;95.40;29.13;;;8.10;99.90;;;;;;5113556;28;20522;-82
2022/12/22 04:06:42;;;;;;;103.40;28.77;;;8.10;99.90;;;;;;5113245;28;20528;-81
2022/12/22 04:09:08;;;;;;;99.22;28.33;;;8.10;99.90;;;;;;5095378;28;20040;-81
2022/12/22 04:14:19;;;;;;;95.97;28.35;;;8.10;99.90;;;;;;5113340;28;20047;-80
2022/12/22 04:16:44;;;;;;;98.80;27.55;;;8.10;99.90;;;;;;5113499;28;20041;-80
2022/12/22 04:19:10;;;;;;;104.32;29.42;;;8.10;99.90;;;;;;5113478;28;20036;-80
2022/12/22 04:21:36;;;;;;;114.00;29.50;;;8.10;99.90;;;;;;5113489;28;20043;-82
2022/12/22 04:24:02;;;;;;;97.85;28.33;;;8.10;99.90;;;;;;5113442;28;20027;-82
2022/12/22 04:26:28;;;;;;;99.63;29.92;;;8.10;99.90;;;;;;5113860;28;20054;-82
2022/12/22 04:28:54;;;;;;;91.82;27.25;;;8.10;99.90;;;;;;5113273;28;20043;-82
2022/12/22 04:31:23;;;;;;;120.43;30.75;;;8.00;99.90;;;;;;5113167;28;20063;-81
2022/12/22 04:33:49;;;;;;;104.53;30.35;;;8.10;99.90;;;;;;5114402;28;20123;-81
2022/12/22 04:36:14;;;;;;;102.88;30.00;;;8.10;99.90;;;;;;5113859;28;20075;-80
2022/12/22 04:38:40;;;;;;;102.70;28.98;;;8.10;99.90;;;;;;5113418;28;20040;-82
2022/12/22 04:41:06;;;;;;;103.40;29.85;;;8.10;99.90;;;;;;5113373;28;20040;-83
2022/12/22 04:43:32;;;;;;;109.72;29.38;;;8.10;99.90;;;;;;5113334;28;20473;-83
2022/12/22 04:45:58;;;;;;;103.13;28.48;;;8.10;99.90;;;;;;5113956;28;20039;-81
2022/12/22 04:48:25;;;;;;;94.30;27.10;;;8.00;99.90;;;;;;5113549;28;20423;-81
2022/12/22 04:50:52;;;;;;;97.55;27.15;;;8.10;99.90;;;;;;5113863;28;20047;-81
2022/12/22 04:53:18;;;;;;;99.05;28.25;;;8.10;99.90;;;;;;5113792;28;20071;-81
2022/12/22 04:55:48;;;;;;;95.57;27.17;;;8.00;99.90;;;;;;5113240;28;20413;-81
2022/12/22 04:58:14;;;;;;;96.63;27.45;;;8.00;99.90;;;;;;5113619;28;20126;-82
2022/12/22 05:00:39;;;;;;;109.10;29.55;;;8.00;99.90;;;;;;5114467;28;20031;-81
2022/12/22 05:03:06;;;;;;;97.55;28.60;;;8.00;99.90;;;;;;5095147;28;20051;-81
2022/12/22 05:05:33;;;;;;;101.85;29.02;;;8.00;99.90;;;;;;5113832;28;20032;-81
2022/12/22 05:07:58;;;;;;;105.57;27.70;;;8.00;99.90;;;;;;5113437;28;20039;-83
2022/12/22 05:10:24;;;;;;;96.63;27.48;;;8.00;99.90;;;;;;5116537;28;20040;-81
2022/12/22 05:12:56;;;;;;;103.43;27.92;;;8.00;99.90;;;;;;5116673;28;20062;-81
2022/12/22 05:15:28;;;;;;;111.80;29.48;;;8.00;99.90;;;;;;5117349;28;20044;-81
2022/12/22 05:17:53;;;;;;;101.28;26.88;;;7.90;99.90;;;;;;5117230;28;20112;-82
2022/12/22 05:20:20;;;;;;;110.50;28.45;;;7.90;99.90;;;;;;5116899;28;20040;-83
2022/12/22 05:22:46;;;;;;;107.55;27.77;;;7.90;99.90;;;;;;5116685;28;20434;-81
2022/12/22 05:25:15;;;;;;;103.60;26.95;;;7.90;99.90;;;;;;5116976;28;20401;-82
2022/12/22 05:27:44;;;;;;;107.53;29.17;;;7.90;99.90;;;;;;5109465;27;20147;-81
2022/12/22 05:30:11;;;;;;;101.20;27.52;;;7.90;99.90;;;;;;5135929;27;20035;-81
2022/12/22 05:32:37;;;;;;;93.80;26.40;;;7.90;99.90;;;;;;5116684;28;20039;-81
2022/12/22 05:35:03;;;;;;;102.35;27.95;;;7.80;99.90;;;;;;5098533;28;20044;-81
2022/12/22 05:37:28;;;;;;;92.00;26.10;;;7.80;99.90;;;;;;5116798;28;20035;-82
2022/12/22 05:39:55;;;;;;;86.60;26.13;;;7.80;99.90;;;;;;5121978;27;20042;-82
2022/12/22 05:42:34;;;;;;;90.90;25.08;;;7.80;99.90;;;;;;5116845;27;20038;-81
2022/12/22 05:45:11;;;;;;;91.53;26.17;;;7.80;99.90;;;;;;5097974;28;20036;-83
2022/12/22 05:47:37;;;;;;;78.32;24.33;;;7.70;99.90;;;;;;5116729;28;20411;-81
2022/12/22 05:50:05;;;;;;;84.93;24.52;;;7.70;99.90;;;;;;5115458;28;20036;-81
2022/12/22 05:52:30;;;;;;;81.35;24.13;;;7.70;99.90;;;;;;5115753;28;20048;-82
2022/12/22 05:54:56;;;;;;;83.75;24.38;;;7.70;99.90;;;;;;5115227;27;20088;-80
2022/12/22 05:57:21;;;;;;;81.93;24.23;;;7.70;99.90;;;;;;5114997;27;20043;-81
2022/12/22 05:59:47;;;;;;;88.15;24.92;;;7.60;99.90;;;;;;5115170;28;20104;-81
2022/12/22 06:02:13;;;;;;;84.78;24.23;;;7.60;99.90;;;;;;5114902;27;20062;-81
2022/12/22 06:04:38;;;;;;;88.13;25.33;;;7.60;99.90;;;;;;5123908;27;20038;-80
2022/12/22 06:07:04;;;;;;;86.82;25.48;;;7.60;99.90;;;;;;5135646;27;20496;-81
2022/12/22 06:09:29;;;;;;;87.55;25.75;;;7.60;99.90;;;;;;5120426;27;20091;-80
2022/12/22 06:11:55;;;;;;;86.75;25.70;;;7.60;99.90;;;;;;5115148;28;20075;-82
2022/12/22 06:14:20;;;;;;;91.63;24.92;;;7.50;99.90;;;;;;5115567;28;20048;-79
2022/12/22 06:16:46;;;;;;;82.57;24.55;;;7.50;99.90;;;;;;5116048;28;20089;-80
2022/12/22 06:19:11;;;;;;;74.95;23.23;;;7.50;99.90;;;;;;5115102;28;20540;-81
2022/12/22 06:21:37;;;;;;;77.45;23.60;;;7.40;99.90;;;;;;5115887;28;20401;-81
2022/12/22 06:24:03;;;;;;;79.28;23.48;;;7.40;99.90;;;;;;5115769;28;20066;-81
2022/12/22 06:26:29;;;;;;;73.05;22.20;;;7.30;99.90;;;;;;5115342;28;20046;-80
2022/12/22 06:28:54;;;;;;;71.65;22.45;;;7.20;99.90;;;;;;5115625;28;20032;-80
2022/12/22 06:31:20;;;;;;;73.45;22.33;;;7.20;99.90;;;;;;5115865;28;20039;-81
2022/12/22 06:33:45;;;;;;;83.85;23.67;;;7.10;99.90;;;;;;5114744;28;20085;-83
2022/12/22 06:36:11;;;;;;;79.15;24.08;;;7.10;99.90;;;;;;5116250;28;20088;-81
2022/12/22 06:38:36;;;;;;;77.40;23.45;;;7.00;99.90;;;;;;5115190;28;20096;-80
2022/12/22 06:41:02;;;;;;;70.07;22.67;;;7.00;99.90;;;;;;5115644;28;20489;-81
2022/12/22 06:43:28;;;;;;;70.15;20.85;;;6.90;99.90;;;;;;5097183;28;20044;-83
2022/12/22 06:45:53;;;;;;;66.18;21.60;;;6.80;99.90;;;;;;5115862;28;20035;-81
2022/12/22 06:48:19;;;;;;;75.38;22.88;;;6.80;99.90;;;;;;5114717;28;20393;-81
2022/12/22 06:50:44;;;;;;;67.63;21.90;;;6.60;99.90;;;;;;5114383;28;20066;-81
2022/12/22 06:53:10;;;;;;;64.00;21.70;;;6.60;99.90;;;;;;5116110;28;20040;-81
2022/12/22 06:55:36;;;;;;;67.18;21.73;;;6.50;99.90;;;;;;5112218;28;20031;-83
2022/12/22 06:58:02;;;;;;;61.28;20.58;;;6.50;99.90;;;;;;5112415;28;20035;-83
2022/12/22 07:00:28;;;;;;;181.18;23.17;;;6.50;99.90;;;;;;5111934;28;20038;-83
2022/12/22 07:02:54;;;;;;;102.65;22.17;;;6.50;99.90;;;;;;5112648;28;20043;-81
2022/12/22 07:05:19;;;;;;;68.35;21.70;;;6.50;99.90;;;;;;5114147;28;20481;-80
2022/12/22 07:07:45;;;;;;;75.25;22.70;;;6.40;99.90;;;;;;5114441;28;20071;-82
2022/12/22 07:10:11;;;;;;;71.50;21.75;;;6.50;99.90;;;;;;5134927;27;20035;-81
2022/12/22 07:12:37;;;;;;;75.05;21.95;;;6.50;99.90;;;;;;5134903;27;20046;-82
2022/12/22 07:15:03;;;;;;;82.75;22.25;;;6.60;99.90;;;;;;5135473;27;20039;-80
2022/12/22 07:17:28;;;;;;;66.15;20.08;;;6.60;99.90;;;;;;5117956;27;20043;-80
2022/12/22 07:19:54;;;;;;;77.55;21.08;;;6.60;99.90;;;;;;5118930;27;20042;-80
2022/12/22 07:22:19;;;;;;;65.05;20.65;;;6.60;99.90;;;;;;5135947;27;20042;-81
2022/12/22 07:24:45;;;;;;;62.17;19.45;;;6.60;99.90;;;;;;5130650;27;20042;-81
2022/12/22 07:27:10;;;;;;;54.78;17.70;;;6.60;99.90;;;;;;5113844;28;20508;-80
2022/12/22 07:29:36;;;;;;;54.05;17.67;;;6.60;99.90;;;;;;5119761;27;20518;-80
2022/12/22 07:32:02;;;;;;;43.60;15.38;;;6.40;99.90;;;;;;5134741;27;20039;-80
2022/12/22 07:34:28;;;;;;;47.38;17.10;;;6.40;99.90;;;;;;5131508;27;20038;-82
2022/12/22 07:36:53;;;;;;;41.90;14.07;;;6.30;99.90;;;;;;5113996;28;20043;-83
2022/12/22 07:39:19;;;;;;;46.67;15.00;;;6.30;99.90;;;;;;5112988;28;20086;-80
2022/12/22 07:44:28;;;;;;;44.47;15.00;;;6.20;99.90;;;;;;5112859;28;20043;-80
2022/12/22 07:46:54;;;;;;;43.75;14.55;;;6.30;99.90;;;;;;5113165;28;20127;-80
2022/12/22 07:52:04;;;;;;;46.20;15.15;;;6.30;99.90;;;;;;5113215;28;20127;-81
2022/12/22 07:54:29;;;;;;;48.83;16.45;;;6.20;99.90;;;;;;5112634;28;20067;-80
2022/12/22 07:56:55;;;;;;;50.67;15.90;;;6.20;99.90;;;;;;5111229;28;20036;-80
2022/12/22 07:59:21;;;;;;;51.42;15.35;;;6.10;99.90;;;;;;5112750;28;20454;-80
2022/12/22 08:01:47;;;;;;;46.47;15.02;;;6.10;99.90;;;;;;5117967;28;20039;-81
2022/12/22 08:04:13;;;;;;;48.85;15.48;;;6.10;99.90;;;;;;5122206;28;20032;-80
2022/12/22 08:06:39;;;;;;;48.97;14.90;;;6.10;99.90;;;;;;5110859;28;20123;-81
2022/12/22 08:09:06;;;;;;;44.10;14.65;;;6.10;99.90;;;;;;5109047;28;20445;-80
2022/12/22 08:11:32;;;;;;;42.10;12.93;;;6.00;99.90;;;;;;5108191;28;20124;-80
2022/12/22 08:13:58;;;;;;;53.60;14.45;;;6.10;99.90;;;;;;5111315;28;20085;-79
2022/12/22 08:16:23;;;;;;;58.45;14.45;;;6.10;99.90;;;;;;5112788;28;20047;-80
2022/12/22 08:18:49;;;;;;;40.85;13.65;;;6.10;99.90;;;;;;5112830;28;20040;-82
2022/12/22 08:21:15;;;;;;;45.83;13.55;;;6.10;99.90;;;;;;5112754;28;20094;-80
2022/12/22 08:23:40;;;;;;;61.28;13.63;;;6.10;99.90;;;;;;5112869;28;20043;-79
2022/12/22 08:26:11;;;;;;;44.15;12.77;;;6.20;99.90;;;;;;5112313;28;20039;-79
2022/12/22 08:28:45;;;;;;;47.50;12.90;;;6.10;99.90;;;;;;5112231;28;20036;-79
2022/12/22 08:31:11;;;;;;;45.83;13.07;;;6.10;99.90;;;;;;5112041;28;20105;-80
2022/12/22 08:33:36;;;;;;;45.30;12.48;;;6.10;99.90;;;;;;5112438;28;20546;-79
2022/12/22 08:36:02;;;;;;;47.22;13.00;;;6.10;99.90;;;;;;5111953;28;20043;-79
2022/12/22 08:38:29;;;;;;;49.88;13.10;;;6.10;99.90;;;;;;5111897;28;20039;-79
2022/12/22 08:40:55;;;;;;;40.97;12.15;;;6.10;99.90;;;;;;5111776;28;20063;-79
2022/12/22 08:43:21;;;;;;;46.72;12.43;;;6.10;99.90;;;;;;5112134;28;20032;-80
2022/12/22 08:45:46;;;;;;;60.40;13.98;;;6.10;99.90;;;;;;5116164;28;20031;-79
2022/12/22 08:48:12;;;;;;;39.22;11.93;;;6.20;99.90;;;;;;5115728;28;20443;-80
2022/12/22 08:50:38;;;;;;;38.55;12.70;;;6.20;99.90;;;;;;5115773;28;20434;-82
2022/12/22 08:53:07;;;;;;;43.30;12.43;;;6.20;99.90;;;;;;5115761;28;20439;-78
2022/12/22 08:55:32;;;;;;;40.03;12.27;;;6.30;99.90;;;;;;5123772;27;20034;-80
2022/12/22 08:57:58;;;;;;;44.63;12.95;;;6.20;99.90;;;;;;5136299;27;20035;-80
2022/12/22 09:00:24;;;;;;;55.63;12.77;;;6.30;99.90;;;;;;5118862;27;20043;-79
2022/12/22 09:02:50;;;;;;;53.33;13.05;;;6.20;99.90;;;;;;5115335;28;20042;-79
2022/12/22 09:05:16;;;;;;;45.67;12.25;;;6.20;99.90;;;;;;5119437;27;20031;-79
2022/12/22 09:07:42;;;;;;;38.70;11.40;;;6.20;99.90;;;;;;5135737;27;20035;-79
2022/12/22 09:10:08;;;;;;;44.17;11.73;;;6.20;99.90;;;;;;5135886;27;20035;-79
2022/12/22 09:12:34;;;;;;;40.78;11.80;;;6.20;99.90;;;;;;5117547;27;20255;-79
2022/12/22 09:15:00;;;;;;;35.38;10.95;;;6.20;99.90;;;;;;5130337;27;20416;-78
2022/12/22 09:17:26;;;;;;;47.72;11.88;;;6.20;99.90;;;;;;5126987;27;20089;-84
2022/12/22 09:19:51;;;;;;;46.47;11.38;;;6.20;99.90;;;;;;5127241;27;20112;-80
2022/12/22 09:22:17;;;;;;;50.25;12.38;;;6.10;99.90;;;;;;5127307;27;20043;-81
2022/12/22 09:24:42;;;;;;;44.55;12.13;;;6.20;99.90;;;;;;5119462;27;20078;-80
2022/12/22 09:27:08;;;;;;;58.17;10.90;;;6.10;99.90;;;;;;5131625;27;20087;-79
2022/12/22 09:29:35;;;;;;;30.48;11.40;;;6.10;99.90;;;;;;5126832;27;20040;-80
2022/12/22 09:32:02;;;;;;;28.30;10.60;;;6.00;99.90;;;;;;5128319;27;20449;-81
2022/12/22 09:34:28;;;;;;;46.47;11.40;;;6.00;99.90;;;;;;5122270;27;20043;-79
2022/12/22 09:36:53;;;;;;;34.47;10.40;;;6.00;99.90;;;;;;5123860;27;20043;-79
2022/12/22 09:39:19;;;;;;;27.80;10.00;;;6.10;99.90;;;;;;5135019;27;20110;-79
2022/12/22 09:41:50;;;;;;;25.42;10.15;;;6.00;99.90;;;;;;5114909;27;20047;-79
2022/12/22 09:44:25;;;;;;;27.83;10.00;;;6.00;99.90;;;;;;5126033;27;20042;-79
2022/12/22 09:46:56;;;;;;;32.90;10.07;;;6.00;99.90;;;;;;5129578;27;20035;-79
2022/12/22 09:49:22;;;;;;;28.30;8.35;;;5.90;99.90;;;;;;5132024;27;20485;-79
2022/12/22 09:51:58;;;;;;;21.88;8.85;;;6.00;99.90;;;;;;5115736;28;20123;-80
2022/12/22 09:54:24;;;;;;;24.65;8.73;;;5.90;99.90;;;;;;5123752;27;20099;-81
2022/12/22 09:56:50;;;;;;;23.63;7.95;;;6.00;99.90;;;;;;5124166;27;20047;-79
2022/12/22 09:59:19;;;;;;;22.67;7.43;;;6.10;99.90;;;;;;5119115;27;20044;-81
2022/12/22 10:02:17;;;;;;;24.38;8.27;;;6.10;99.90;;;;;;5116922;27;20042;-79
2022/12/22 10:04:48;;;;;;;22.00;8.38;;;6.10;99.90;;;;;;5125688;27;20043;-79
2022/12/22 10:07:19;;;;;;;23.38;8.98;;;6.20;99.90;;;;;;5137386;27;20073;-79
2022/12/22 10:09:45;;;;;;;18.88;8.27;;;6.30;99.90;;;;;;5121463;27;20408;-79
2022/12/22 10:12:20;;;;;;;22.13;8.63;;;6.40;99.90;;;;;;5131490;27;20095;-79
2022/12/22 10:14:47;;;;;;;27.60;8.68;;;6.50;99.90;;;;;;5129611;27;20092;-80
2022/12/22 10:17:19;;;;;;;21.58;8.80;;;6.50;99.90;;;;;;5125251;27;20058;-81
2022/12/22 10:19:46;;;;;;;26.42;9.18;;;6.60;99.90;;;;;;5121922;27;20031;-80
2022/12/22 10:22:26;;;;;;;22.35;8.13;;;6.70;99.90;;;;;;5128959;27;20047;-79
2022/12/22 10:24:52;;;;;;;19.98;9.00;;;6.70;99.90;;;;;;5133767;27;20496;-81
2022/12/22 10:27:19;;;;;;;22.42;8.70;;;6.80;99.90;;;;;;5122976;27;20074;-80
2022/12/22 10:29:45;;;;;;;22.77;9.25;;;6.80;99.90;;;;;;5118444;27;20066;-79
2022/12/22 10:32:17;;;;;;;18.35;8.43;;;6.90;99.90;;;;;;5123960;27;20039;-79
2022/12/22 10:34:57;;;;;;;19.17;9.25;;;7.00;99.90;;;;;;5132315;27;20039;-79
2022/12/22 10:37:31;;;;;;;20.17;9.02;;;7.00;99.90;;;;;;5130230;27;20040;-79
2022/12/22 10:39:56;;;;;;;20.45;9.65;;;7.10;99.90;;;;;;5134624;27;20096;-80
2022/12/22 10:42:22;;;;;;;18.85;8.90;;;7.00;99.90;;;;;;5135131;27;20027;-80
2022/12/22 10:44:49;;;;;;;19.88;8.93;;;7.10;99.90;;;;;;5129549;27;20080;-79
2022/12/22 10:47:22;;;;;;;21.83;8.88;;;7.20;99.90;;;;;;5138103;27;20036;-79
2022/12/22 10:49:54;;;;;;;24.02;9.13;;;7.20;99.90;;;;;;5101718;27;20524;-80
2022/12/22 10:52:21;;;;;;;16.27;8.35;;;7.20;99.90;;;;;;5129239;27;20424;-79
2022/12/22 10:54:47;;;;;;;17.38;8.15;;;7.20;99.90;;;;;;5121349;27;20050;-79
2022/12/22 10:57:12;;;;;;;16.80;7.68;;;7.20;99.90;;;;;;5132042;27;20039;-79
2022/12/22 10:59:59;;;;;;;18.13;8.15;;;7.20;99.90;;;;;;5131545;27;20039;-80
2022/12/22 11:02:29;;;;;;;18.80;7.90;;;7.20;99.90;;;;;;5130989;27;20043;-80
2022/12/22 11:05:06;;;;;;;18.65;7.43;;;7.20;99.90;;;;;;5125266;27;20084;-81
2022/12/22 11:07:35;;;;;;;18.08;7.93;;;7.20;99.90;;;;;;5131357;27;20027;-78
2022/12/22 11:10:01;;;;;;;18.80;7.95;;;7.20;99.90;;;;;;5124531;27;20049;-78
2022/12/22 11:12:56;;;;;;;16.83;7.60;;;7.20;99.90;;;;;;5125755;27;20027;-79
2022/12/22 11:15:30;;;;;;;17.17;7.28;;;7.30;99.90;;;;;;5123358;27;20040;-79
2022/12/22 11:18:20;;;;;;;15.77;7.57;;;7.30;99.90;;;;;;5115796;27;20126;-78
2022/12/22 11:21:29;;;;;;;17.77;8.07;;;7.40;99.90;;;;;;5120820;27;20038;-78
2022/12/22 11:24:14;;;;;;;18.35;7.57;;;7.40;99.90;;;;;;5114559;27;20126;-79
2022/12/22 11:27:26;;;;;;;17.88;8.02;;;7.40;99.90;;;;;;5128763;27;20085;-78
2022/12/22 11:30:07;;;;;;;18.20;7.05;;;7.50;99.90;;;;;;5126810;27;20400;-78
2022/12/22 11:32:55;;;;;;;15.30;7.07;;;7.50;99.90;;;;;;5119598;27;20038;-79
2022/12/22 11:35:46;;;;;;;14.43;6.70;;;7.50;99.90;;;;;;5130639;27;20141;-79
2022/12/22 11:38:52;;;;;;;13.73;5.97;;;7.50;99.90;;;;;;5113078;28;20044;-80
2022/12/22 11:41:27;;;;;;;14.65;6.63;;;7.50;99.90;;;;;;5114342;27;20043;-79
2022/12/22 11:44:00;;;;;;;18.13;6.72;;;7.60;99.90;;;;;;5129679;27;20042;-78
2022/12/22 11:46:33;;;;;;;14.77;6.20;;;7.70;99.90;;;;;;5126516;27;20545;-78
2022/12/22 11:49:24;;;;;;;14.50;6.10;;;7.80;99.90;;;;;;5121348;27;20493;-79
2022/12/22 11:52:47;;;;;;;12.82;6.05;;;7.90;99.90;;;;;;5110736;28;20309;-78
2022/12/22 11:55:33;;;;;;;15.82;5.68;;;8.00;99.90;;;;;;5021087;28;20070;-78
2022/12/22 11:58:26;;;;;;;15.43;5.05;;;8.10;99.90;;;;;;5021029;28;20099;-79
2022/12/22 12:01:13;;;;;;;15.93;5.67;;;8.20;99.90;;;;;;5106154;27;20047;-79
2022/12/22 12:04:08;;;;;;;11.95;5.00;;;8.20;99.90;;;;;;5133074;28;20268;-79
2022/12/22 12:06:41;;;;;;;14.05;5.25;;;8.30;99.90;;;;;;5121919;28;20408;-81
2022/12/22 12:09:16;;;;;;;;;;;8.40;99.90;;;;;;5130249;28;20043;-79
2022/12/22 12:11:51;;;;;;;14.02;4.75;;;8.40;99.90;;;;;;5118162;28;19915;-81
2022/12/22 12:14:35;;;;;;;15.32;5.05;;;8.60;99.90;;;;;;5124751;28;20062;-79
2022/12/22 12:17:34;;;;;;;10.90;4.53;;;8.60;99.90;;;;;;5125576;28;20103;-78
2022/12/22 12:20:34;;;;;;;9.20;4.82;;;8.70;99.90;;;;;;5131807;27;20035;-78
2022/12/22 12:23:21;;;;;;;12.00;4.65;;;8.80;99.90;;;;;;5132782;27;20056;-79
2022/12/22 12:25:57;;;;;;;14.43;4.75;;;8.80;99.90;;;;;;5116801;28;20035;-79
2022/12/22 12:28:33;;;;;;;15.60;4.45;;;8.70;99.90;;;;;;5117179;27;20051;-78
2022/12/22 12:31:00;;;;;;;10.82;4.93;;;8.70;99.90;;;;;;5129190;27;20042;-80
2022/12/22 12:33:51;;;;;;;12.35;5.03;;;8.80;99.90;;;;;;5132003;27;20404;-79
2022/12/22 12:36:40;;;;;;;15.27;4.45;;;8.70;99.90;;;;;;5127411;27;20084;-79
2022/12/22 12:39:40;;;;;;;13.23;4.38;;;8.80;99.90;;;;;;5133025;27;20160;-80
2022/12/22 12:42:39;;;;;;;14.95;4.32;;;8.80;99.90;;;;;;5105436;27;20386;-80
2022/12/22 12:45:56;;;;;;;14.35;4.10;;;8.60;99.90;;;;;;5128176;27;20039;-79
2022/12/22 12:48:22;;;;;;;15.02;4.57;;;8.60;99.90;;;;;;5075166;27;20046;-78
2022/12/22 12:50:57;;;;;;;13.25;4.20;;;8.60;99.90;;;;;;5109047;28;20043;-78
2022/12/22 12:53:27;;;;;;;12.50;4.50;;;8.50;99.90;;;;;;5119702;27;20059;-79
2022/12/22 12:55:55;;;;;;;12.13;4.30;;;8.50;99.90;;;;;;5131448;27;20046;-79
2022/12/22 12:58:38;;;;;;;12.57;3.70;;;8.50;99.90;;;;;;5132292;27;20042;-79
2022/12/22 13:01:11;;;;;;;15.55;3.90;;;8.50;99.90;;;;;;5136861;27;20114;-80
2022/12/22 13:03:42;;;;;;;10.00;4.45;;;8.60;99.90;;;;;;5133025;27;20032;-79
2022/12/22 13:06:09;;;;;;;9.95;3.50;;;8.80;99.90;;;;;;5134029;27;20127;-80
2022/12/22 13:09:01;;;;;;;12.20;3.70;;;9.00;99.90;;;;;;5137955;27;20088;-79
2022/12/22 13:11:35;;;;;;;10.95;3.60;;;9.20;99.90;;;;;;5122619;27;20034;-79
2022/12/22 13:14:01;;;;;;;10.77;3.97;;;9.20;99.90;;;;;;5132543;27;20092;-79
2022/12/22 13:16:29;;;;;;;11.98;3.80;;;9.10;99.90;;;;;;5130458;27;20035;-79
2022/12/22 13:18:57;;;;;;;13.00;3.65;;;9.00;99.90;;;;;;5128931;27;20426;-79
2022/12/22 13:21:44;;;;;;;10.70;4.10;;;8.90;99.90;;;;;;5128696;27;20039;-80
2022/12/22 13:24:09;;;;;;;11.65;3.72;;;8.80;99.90;;;;;;5118730;27;20031;-79
2022/12/22 13:26:38;;;;;;;14.10;3.80;;;8.70;99.90;;;;;;5128018;27;20035;-79
2022/12/22 13:29:27;;;;;;;12.15;3.30;;;8.70;99.90;;;;;;5123478;27;20058;-79
2022/12/22 13:32:01;;;;;;;11.45;3.40;;;8.70;99.90;;;;;;5134808;27;20054;-80
2022/12/22 13:34:34;;;;;;;14.40;3.83;;;8.60;99.90;;;;;;5132865;27;20031;-81
2022/12/22 13:37:12;;;;;;;10.48;3.30;;;8.60;99.90;;;;;;5131374;27;20053;-80
2022/12/22 13:39:37;;;;;;;9.40;3.30;;;8.60;99.90;;;;;;5130048;27;20035;-81
2022/12/22 13:42:05;;;;;;;11.93;3.83;;;8.60;99.90;;;;;;5118109;27;20039;-81
2022/12/22 13:44:32;;;;;;;7.38;3.65;;;8.60;99.90;;;;;;5123737;27;20038;-80
2022/12/22 13:47:09;;;;;;;17.38;4.78;;;8.60;99.90;;;;;;5126860;27;20044;-83
2022/12/22 13:49:35;;;;;;;10.68;3.90;;;8.60;99.90;;;;;;5128659;27;20392;-79
2022/12/22 13:52:02;;;;;;;12.80;4.53;;;8.60;99.90;;;;;;5135091;27;20035;-81
2022/12/22 13:54:36;;;;;;;11.30;4.57;;;8.60;99.90;;;;;;5131330;27;20442;-80
2022/12/22 13:57:04;;;;;;;12.63;4.50;;;8.60;99.90;;;;;;5132359;27;20044;-79
2022/12/22 13:59:34;;;;;;;11.15;4.53;;;8.60;99.90;;;;;;5125017;27;20035;-80
2022/12/22 14:02:14;;;;;;;15.02;4.80;;;8.60;99.90;;;;;;5121812;27;20039;-80
2022/12/22 14:04:42;;;;;;;11.68;4.40;;;8.60;99.90;;;;;;5127952;27;20114;-81
2022/12/22 14:07:18;;;;;;;14.02;4.55;;;8.60;99.90;;;;;;5121034;27;20058;-82
2022/12/22 14:09:46;;;;;;;11.45;4.38;;;8.60;99.90;;;;;;5124702;27;20042;-80
2022/12/22 14:12:17;;;;;;;10.15;4.22;;;8.60;99.90;;;;;;5111490;27;20043;-79
2022/12/22 14:14:48;;;;;;;13.38;4.43;;;8.50;99.90;;;;;;5135799;27;20039;-78
2022/12/22 14:17:22;;;;;;;9.38;3.35;;;8.60;99.90;;;;;;5130907;27;20043;-80
2022/12/22 14:19:54;;;;;;;9.57;3.40;;;8.60;99.90;;;;;;5136281;27;20046;-80
2022/12/22 14:22:32;;;;;;;11.00;3.28;;;8.60;99.90;;;;;;5126292;27;20080;-79
2022/12/22 14:25:08;;;;;;;13.68;3.30;;;8.60;99.90;;;;;;5135627;27;20077;-79
2022/12/22 14:27:46;;;;;;;9.25;2.83;;;8.60;99.90;;;;;;5136172;27;20035;-80
2022/12/22 14:30:20;;;;;;;11.90;2.63;;;8.70;99.90;;;;;;5134643;27;20031;-81
2022/12/22 14:32:48;;;;;;;7.28;2.33;;;8.70;99.90;;;;;;5123314;27;20043;-79
2022/12/22 14:35:20;;;;;;;10.15;2.30;;;8.70;99.90;;;;;;5134392;27;20122;-80
2022/12/22 14:37:46;;;;;;;7.68;2.55;;;8.70;99.90;;;;;;5126933;27;20039;-79
2022/12/22 14:40:33;;;;;;;16.55;3.42;;;8.70;99.90;;;;;;5134201;27;20043;-80
2022/12/22 14:43:02;;;;;;;9.75;2.75;;;8.70;99.90;;;;;;5123603;27;20374;-80
2022/12/22 14:45:28;;;;;;;7.82;2.20;;;8.60;99.90;;;;;;5125132;27;20034;-80
2022/12/22 14:47:54;;;;;;;7.72;1.85;;;8.60;99.90;;;;;;5118103;27;20146;-79
2022/12/22 14:50:26;;;;;;;10.45;2.20;;;8.50;99.90;;;;;;5127923;27;20050;-79
2022/12/22 14:53:00;;;;;;;7.82;2.40;;;8.50;99.90;;;;;;5124373;27;20448;-81
2022/12/22 14:55:38;;;;;;;8.02;2.35;;;8.40;99.90;;;;;;5115215;28;20099;-80
2022/12/22 14:58:08;;;;;;;6.35;2.05;;;8.30;99.90;;;;;;5126686;27;20369;-79
2022/12/22 15:00:45;;;;;;;7.60;2.47;;;8.30;99.90;;;;;;5136257;27;20061;-80
2022/12/22 15:03:31;;;;;;;11.68;2.60;;;8.30;99.90;;;;;;5137539;27;20092;-80
2022/12/22 15:06:21;;;;;;;6.95;2.30;;;8.20;99.90;;;;;;5116926;27;20087;-80
2022/12/22 15:08:46;;;;;;;8.77;2.42;;;8.20;99.90;;;;;;5137895;27;20119;-80
2022/12/22 15:11:17;;;;;;;9.30;2.97;;;8.10;99.90;;;;;;5130847;27;20083;-81
2022/12/22 15:13:44;;;;;;;11.23;2.42;;;8.10;99.90;;;;;;5115332;28;20047;-80
2022/12/22 15:16:20;;;;;;;10.18;2.65;;;8.10;99.90;;;;;;5116201;28;20042;-80
2022/12/22 15:18:47;;;;;;;7.55;2.95;;;8.10;99.90;;;;;;5116735;28;20061;-80
2022/12/22 15:21:14;;;;;;;6.90;2.70;;;8.00;99.90;;;;;;5117548;28;20071;-80
2022/12/22 15:23:40;;;;;;;7.72;3.05;;;8.00;99.90;;;;;;5117513;28;20040;-81
2022/12/22 15:26:06;;;;;;;10.77;4.00;;;8.00;99.90;;;;;;5118458;28;20046;-81
2022/12/22 15:28:32;;;;;;;10.30;4.00;;;8.00;99.90;;;;;;5117475;28;20036;-80
2022/12/22 15:30:59;;;;;;;12.07;4.20;;;8.00;99.90;;;;;;5117213;28;20031;-81
2022/12/22 15:33:25;;;;;;;12.65;4.05;;;8.10;99.90;;;;;;5115601;28;20496;-82
2022/12/22 15:35:50;;;;;;;6.57;4.18;;;8.00;99.90;;;;;;5117020;28;20032;-83
2022/12/22 15:38:19;;;;;;;11.05;4.00;;;8.00;99.90;;;;;;5117827;28;20035;-80
2022/12/22 15:40:44;;;;;;;11.48;3.90;;;8.00;99.90;;;;;;5115924;28;20048;-83
2022/12/22 15:43:10;;;;;;;8.27;3.92;;;8.00;99.90;;;;;;5116338;28;20528;-80
2022/12/22 15:45:36;;;;;;;11.43;4.53;;;8.00;99.90;;;;;;5121283;27;20096;-80
2022/12/22 15:48:03;;;;;;;11.95;4.75;;;8.00;99.90;;;;;;5132509;27;20404;-80
2022/12/22 15:50:34;;;;;;;11.13;4.40;;;7.90;99.90;;;;;;5123943;27;20118;-81
2022/12/22 15:53:00;;;;;;;10.23;4.47;;;7.90;99.90;;;;;;5105602;27;20050;-81
2022/12/22 15:55:26;;;;;;;10.95;4.55;;;7.90;99.90;;;;;;5136338;27;20054;-81
2022/12/22 15:57:55;;;;;;;12.05;4.82;;;7.80;99.90;;;;;;5128829;27;20087;-81
2022/12/22 16:00:21;;;;;;;7.40;4.40;;;7.80;99.90;;;;;;5135782;27;20151;-81
2022/12/22 16:02:46;;;;;;;12.20;4.90;;;7.70;99.90;;;;;;5135119;27;20532;-80
2022/12/22 16:05:12;;;;;;;12.90;6.25;;;7.70;99.90;;;;;;5129514;28;20080;-81
2022/12/22 16:07:39;;;;;;;12.32;6.90;;;7.70;99.90;;;;;;5129607;27;20053;-81
2022/12/22 16:10:16;;;;;;;11.80;7.47;;;7.70;99.90;;;;;;5132241;27;20064;-81
2022/12/22 16:12:48;;;;;;;12.27;5.35;;;7.60;99.90;;;;;;5123002;28;20036;-83
2022/12/22 16:15:13;;;;;;;28.00;20.20;;;7.60;99.90;;;;;;5116053;28;20066;-82
2022/12/22 16:17:39;;;;;;;11.05;6.55;;;7.60;99.90;;;;;;5131533;28;20437;-81
2022/12/22 16:20:05;;;;;;;14.63;11.20;;;7.50;99.90;;;;;;5126554;28;20078;-81
2022/12/22 16:22:35;;;;;;;13.82;6.68;;;7.50;99.90;;;;;;5126546;28;20454;-81
2022/12/22 16:25:04;;;;;;;20.10;7.03;;;7.50;99.90;;;;;;5134119;28;20031;-81
2022/12/22 16:27:30;;;;;;;12.05;6.25;;;7.50;99.90;;;;;;5126362;28;20062;-80
2022/12/22 16:29:56;;;;;;;11.10;6.57;;;7.40;99.90;;;;;;5116843;28;20039;-81
2022/12/22 16:32:25;;;;;;;14.05;6.40;;;7.50;99.90;;;;;;5127675;28;20569;-84
2022/12/22 16:34:52;;;;;;;10.68;6.57;;;7.50;99.90;;;;;;5131560;28;20039;-81
2022/12/22 16:37:17;;;;;;;15.55;7.65;;;7.40;99.90;;;;;;5131962;27;20534;-81
2022/12/22 16:39:44;;;;;;;12.32;7.70;;;7.40;99.90;;;;;;5121898;27;20029;-81